world map with NGB marked

NGB - Airport

This information may not be accurate or current and is not valid for navigation or flight planning. No warranty of fitness for any purpose is made or implied.

flag of China

Donate via PayPal

Additional information is available on the NEW Great Circle Mapper

Location
City:  Ningbo, Zhejiang, China
Name:Lishe International Airport
ICAO / IATA:ZSNB / NGB

Details
Type:Airport (Aerodrome, Airfield)
Use:Public/Civil
Latitude:29°50'N (29.827)
Longitude:121°28'E (121.463)
Elevation:13 ft (4 m)
Runways:1
Longest:10499 × 148 ft (3200 × 45 m)

Time
Timezone:UTC+8 (DST+10)
Local Time:

Weather
METAR:ZSNB  041400Z 12003MPS 4000 BR NSC 09/05 Q1024 NOSIG
TAF:ZSNB  (expired)

Related Locations
Nearby:
Farthest:UZU: 12418 mi / 19984 km
Curuzú Cuatiá, W, AR

Find:

   beyond  
but within

Other Information
Maps:
Sources:

  

Airport Diagram

Airport diagram for NGB

Airport diagram PDF

 


Great Circle Mapper   Great Circle Mapper
Great Circle Mapper FAQ   Great Circle Mapper FAQ
  Karl's Home Page
KLS²   KLS² Home
   GC on Facebook
Airlines of the World   Airlines of the World
Donate via PayPal


Copyright © 2004-2019, Karl L. Swartz. All rights reserved.
All trademarks mentioned herein belong to their respective owners.

Please see credits for attribution and copyright information.

Karl Swartz <karl@kls2.com>
  Powered by FreeBSD
Valid HTML 4.01!
Labeled with ICRA
hCard Microformat
Geo Microformat